Time;durP1;ratioP1;P1;durP2;ratioP2;P2;SDS_P1;SDS_P2;PMS_P1;PMS_P2;Temp;Humidity;BMP_temperature;BMP_pressure;BME280_temperature;BME280_humidity;BME280_pressure;Samples;Min_cycle;Max_cycle;Signal;HPM_P1;HPM_P2
2023/02/01 00:01:31;;;;;;;;;;;8.00;89.80;;;6.81;73.45;100922.97;6152446;23;20271;-78
2023/02/01 00:03:58;;;;;;;;;;;8.00;89.40;;;6.83;73.04;100920.97;6152044;23;20336;-78
2023/02/01 00:06:25;;;;;;;;;;;8.00;89.30;;;6.82;72.37;100929.91;6151044;23;19927;-78
2023/02/01 00:08:53;;;;;;;;;;;8.00;88.50;;;6.83;72.50;100935.06;6152177;23;19916;-78
2023/02/01 00:11:23;;;;;;;;;;;8.00;88.90;;;6.84;72.37;100928.75;6152057;23;19917;-78
2023/02/01 00:13:50;;;;;;;;;;;8.00;88.70;;;6.79;71.22;100922.34;6152057;23;20007;-78
2023/02/01 00:16:19;;;;;;;;;;;8.00;87.50;;;6.80;71.18;100921.34;6149939;23;19923;-78
2023/02/01 00:18:47;;;;;;;;;;;7.90;87.70;;;6.75;70.10;100926.34;6149667;23;19920;-78
2023/02/01 00:21:14;;;;;;;;;;;7.90;86.90;;;6.68;70.05;100924.34;6151849;23;19920;-78
2023/02/01 00:23:41;;;;;;;;;;;7.80;86.90;;;6.64;70.69;100920.44;6151808;23;20628;-78
2023/02/01 00:26:14;;;;;;;;;;;7.80;87.50;;;6.61;70.46;100918.13;6151151;23;19920;-78
2023/02/01 00:28:42;;;;;;;;;;;7.80;87.10;;;6.63;69.78;100915.28;6149854;23;19959;-78
2023/02/01 00:31:09;;;;;;;;;;;7.80;86.80;;;6.69;70.42;100920.72;6151297;23;19921;-78
2023/02/01 00:33:36;;;;;;;;;;;7.80;87.10;;;6.71;70.28;100913.41;6150161;23;20003;-78
2023/02/01 00:36:05;;;;;;;;;;;7.80;87.20;;;6.73;69.95;100907.94;6151525;23;19927;-78
2023/02/01 00:38:33;;;;;;;;;;;7.90;86.60;;;6.77;69.70;100905.75;6151628;23;19921;-78
2023/02/01 00:41:03;;;;;;;;;;;7.90;86.70;;;6.76;69.37;100898.81;6151629;23;19917;-78
2023/02/01 00:43:31;;;;;;;;;;;7.90;86.50;;;6.77;69.63;100897.81;6151599;23;19917;-78
2023/02/01 00:45:59;;;;;;;;;;;7.90;86.50;;;6.77;69.44;100887.22;6149556;23;19921;-78
2023/02/01 00:48:27;;;;;;;;;;;7.90;86.60;;;6.79;69.49;100878.09;6149474;23;19920;-78
2023/02/01 00:50:54;;;;;;;;;;;7.90;86.20;;;6.76;69.47;100861.72;6151660;23;19926;-78
2023/02/01 00:53:21;;;;;;;;;;;7.90;86.20;;;6.79;69.16;100871.97;6149752;23;19917;-78
2023/02/01 00:55:48;;;;;;;;;;;7.90;86.20;;;6.83;69.27;100878.53;6151039;23;19952;-78
2023/02/01 00:58:15;;;;;;;;;;;8.00;86.30;;;6.83;69.46;100883.84;6151173;23;19921;-78
2023/02/01 01:00:43;;;;;;;;;;;8.00;86.30;;;6.84;69.35;100891.66;6152104;23;19952;-78
2023/02/01 01:03:18;;;;;;;;;;;8.00;86.50;;;6.85;69.48;100889.81;6151344;23;19924;-78
2023/02/01 01:05:45;;;;;;;;;;;8.00;86.50;;;6.88;69.07;100898.25;6151859;23;19927;-78
2023/02/01 01:08:12;;;;;;;;;;;8.00;85.90;;;6.90;69.11;100900.72;6154083;23;19920;-78
2023/02/01 01:10:39;;;;;;;;;;;8.00;85.90;;;6.84;68.81;100896.94;6153597;23;19921;-78
2023/02/01 01:13:06;;;;;;;;;;;8.00;85.50;;;6.85;69.09;100900.41;6155436;23;19976;-78
2023/02/01 01:15:36;;;;;;;;;;;8.10;86.00;;;6.83;69.00;100894.44;6152805;23;20374;-78
2023/02/01 01:18:04;;;;;;;;;;;8.00;85.80;;;6.79;69.15;100887.88;6153287;23;19920;-78
2023/02/01 01:20:34;;;;;;;;;;;7.90;86.30;;;6.77;69.77;100901.28;6150921;23;19999;-78
2023/02/01 01:23:01;;;;;;;;;;;7.90;86.70;;;6.74;69.60;100906.97;6152148;23;20339;-78
2023/02/01 01:25:28;;;;;;;;;;;7.80;86.70;;;6.72;70.23;100896.50;6151686;23;19923;-78
2023/02/01 01:27:55;;;;;;;;;;;7.80;87.10;;;6.72;70.31;100899.16;6152973;23;20578;-78
2023/02/01 01:30:22;;;;;;;;;;;7.80;87.20;;;6.75;70.76;100895.34;6153780;23;20326;-78
2023/02/01 01:32:49;;;;;;;;;;;7.90;87.30;;;6.77;70.57;100885.38;6154131;23;19928;-78
2023/02/01 01:35:17;;;;;;;;;;;7.90;87.30;;;6.80;70.84;100897.47;6151551;23;19971;-78
2023/02/01 01:37:45;;;;;;;;;;;7.90;87.30;;;6.79;69.92;100877.28;6149891;23;20221;-78
2023/02/01 01:40:12;;;;;;;;;;;7.90;87.20;;;6.78;70.38;100887.03;6153450;23;19921;-78
2023/02/01 01:42:41;;;;;;;;;;;7.90;87.30;;;6.76;70.26;100877.63;6151901;23;19943;-77
2023/02/01 01:45:19;;;;;;;;;;;7.90;87.20;;;6.75;70.84;100891.88;6152202;23;19920;-78
2023/02/01 01:47:49;;;;;;;;;;;7.80;87.30;;;6.74;70.73;100882.28;6150977;23;19958;-78
2023/02/01 01:50:19;;;;;;;;;;;7.90;87.50;;;6.79;70.57;100883.41;6150820;23;20297;-77
2023/02/01 01:52:50;;;;;;;;;;;7.90;87.30;;;6.77;70.52;100873.97;6152048;23;19916;-78
2023/02/01 01:55:19;;;;;;;;;;;8.00;87.30;;;6.77;70.20;100873.97;6152725;23;19917;-77
2023/02/01 01:57:50;;;;;;;;;;;7.90;86.90;;;6.78;70.02;100870.31;6152811;23;20255;-78
2023/02/01 02:00:19;;;;;;;;;;;8.00;86.90;;;6.79;70.09;100867.50;6151622;23;19946;-78
2023/02/01 02:02:51;;;;;;;;;;;7.90;87.00;;;6.81;70.00;100864.66;6151475;23;19968;-78
2023/02/01 02:05:20;;;;;;;;;;;8.00;86.70;;;6.80;69.68;100863.84;6151345;23;19971;-78
2023/02/01 02:07:50;;;;;;;;;;;7.90;86.30;;;6.74;69.40;100869.84;6149449;23;19952;-78
2023/02/01 02:10:18;;;;;;;;;;;7.90;86.30;;;6.71;69.45;100868.34;6150542;23;19917;-78
2023/02/01 02:12:47;;;;;;;;;;;7.90;86.10;;;6.70;68.79;100873.84;6153338;23;20267;-77
2023/02/01 02:15:17;;;;;;;;;;;7.80;85.80;;;6.65;68.35;100863.78;6151394;23;20299;-78
2023/02/01 02:17:51;;;;;;;;;;;7.80;85.40;;;6.61;68.58;100862.47;6150601;23;19926;-77
2023/02/01 02:20:45;;;;;;;;;;;7.70;85.50;;;6.64;68.48;100859.47;6151242;23;20335;-78
2023/02/01 02:23:43;;;;;;;;;;;7.80;85.70;;;6.64;68.11;100856.81;6150170;23;19939;-78
2023/02/01 02:26:36;;;;;;;;;;;7.80;85.30;;;6.59;67.99;100851.22;6151098;23;20291;-78
2023/02/01 02:29:44;;;;;;;;;;;7.70;85.20;;;6.61;68.16;100843.09;6153405;23;19923;-78
2023/02/01 02:33:02;;;;;;;;;;;7.80;85.30;;;6.61;67.38;100848.41;6136040;23;19916;-77
2023/02/01 02:35:38;;;;;;;;;;;7.70;84.90;;;6.61;67.65;100854.50;6152453;23;20004;-78
2023/02/01 02:38:14;;;;;;;;;;;7.70;84.70;;;6.64;67.16;100861.31;6150063;23;19920;-78
2023/02/01 02:40:48;;;;;;;;;;;7.80;84.50;;;6.66;67.29;100854.00;6151559;23;19999;-78
2023/02/01 02:49:10;;;;;;;;;;;7.80;83.80;;;6.65;66.27;100839.91;6152415;23;19921;-78
2023/02/01 02:54:47;;;;;;;;;;;7.80;83.70;;;6.67;66.10;100837.91;6152905;23;19952;-78
2023/02/01 03:05:40;;;;;;;;;;;7.70;83.10;;;6.59;65.97;100832.69;6150902;23;19968;-78
2023/02/01 03:08:13;;;;;;;;;;;7.70;83.40;;;6.59;65.84;100835.34;6150100;23;19920;-77
2023/02/01 03:10:46;;;;;;;;;;;7.70;83.10;;;6.49;65.12;100836.53;6150781;23;19917;-78
2023/02/01 03:13:19;;;;;;;;;;;7.60;82.20;;;6.50;65.56;100820.47;6150545;23;19917;-78
2023/02/01 03:15:52;;;;;;;;;;;7.70;83.10;;;6.49;65.23;100824.13;6152540;23;20011;-78
2023/02/01 03:18:25;;;;;;;;;;;7.60;82.40;;;6.49;64.93;100823.28;6149739;23;19921;-78
2023/02/01 03:20:54;;;;;;;;;;;7.60;82.30;;;6.51;64.81;100826.59;6149811;23;19947;-89
2023/02/01 03:23:26;;;;;;;;;;;7.60;82.20;;;6.43;65.32;100815.03;6151509;23;19947;-89
2023/02/01 03:25:55;;;;;;;;;;;7.60;82.40;;;6.44;64.75;100808.78;6150684;23;19916;-89
2023/02/01 03:28:24;;;;;;;;;;;7.60;82.00;;;6.44;65.39;100805.25;6150893;23;20003;-89
2023/02/01 03:30:51;;;;;;;;;;;7.60;82.80;;;6.49;65.23;100802.94;6150125;23;20541;-89
2023/02/01 03:33:23;;;;;;;;;;;7.80;82.70;;;6.42;65.18;100801.97;6150783;23;19967;-89
2023/02/01 03:35:57;;;;;;;;;;;7.60;82.50;;;6.32;65.58;100798.75;6151157;23;20005;-89
2023/02/01 03:38:29;;;;;;;;;;;7.60;82.80;;;6.34;65.60;100791.44;6150912;23;20407;-90
2023/02/01 03:41:02;;;;;;;;;;;7.60;82.70;;;6.38;65.98;100801.50;6151427;23;19920;-91
2023/02/01 03:43:30;;;;;;;;;;;7.60;82.80;;;6.40;65.56;100796.03;6150795;23;19924;-90
2023/02/01 03:46:01;;;;;;;;;;;7.60;82.90;;;6.37;65.77;100791.91;6150933;23;19920;-89
2023/02/01 03:48:29;;;;;;;;;;;7.50;83.30;;;6.35;66.01;100783.31;6150842;23;19917;-88
2023/02/01 03:50:59;;;;;;;;;;;7.50;83.30;;;6.35;66.14;100793.94;6151264;23;19920;-89
2023/02/01 03:53:29;;;;;;;;;;;7.50;83.40;;;6.37;66.20;100799.03;6151065;23;19921;-89
2023/02/01 03:55:56;;;;;;;;;;;7.50;83.50;;;6.34;66.05;100791.44;6150601;23;20262;-89
2023/02/01 03:58:24;;;;;;;;;;;7.50;83.70;;;6.36;66.48;100790.28;6151065;23;19995;-90
2023/02/01 04:00:52;;;;;;;;;;;7.50;83.70;;;6.37;66.23;100769.91;6150874;23;19924;-89
2023/02/01 04:03:21;;;;;;;;;;;7.50;83.50;;;6.35;66.14;100754.19;6151978;23;19927;-89
2023/02/01 04:05:48;;;;;;;;;;;7.50;83.60;;;6.31;66.09;100752.88;6150172;23;19924;-89
2023/02/01 04:08:16;;;;;;;;;;;7.50;83.70;;;6.32;66.70;100753.72;6150132;23;19917;-88
2023/02/01 04:10:44;;;;;;;;;;;7.50;83.90;;;6.34;66.72;100763.13;6150709;23;19948;-89
2023/02/01 04:13:11;;;;;;;;;;;7.50;83.90;;;6.33;66.36;100761.47;6152380;23;19947;-90
2023/02/01 04:15:38;;;;;;;;;;;7.50;83.70;;;6.28;66.84;100755.88;6152913;23;20003;-89
2023/02/01 04:18:06;;;;;;;;;;;7.40;83.90;;;6.31;67.00;100746.78;6149015;23;19946;-90
2023/02/01 04:20:33;;;;;;;;;;;7.40;84.10;;;6.38;66.90;100753.00;6174973;23;20324;-89
2023/02/01 04:23:02;;;;;;;;;;;7.50;84.30;;;6.36;66.71;100755.84;6152689;23;19920;-88
2023/02/01 04:25:29;;;;;;;;;;;7.50;84.30;;;6.40;66.85;100774.84;6150850;23;20320;-89
2023/02/01 04:27:59;;;;;;;;;;;7.50;84.20;;;6.41;67.03;100772.03;6151655;23;19921;-89
2023/02/01 04:30:26;;;;;;;;;;;7.60;84.30;;;6.40;67.12;100775.69;6152625;23;19917;-90
2023/02/01 04:32:53;;;;;;;;;;;7.60;84.30;;;6.36;67.25;100792.09;6154265;23;19955;-89
2023/02/01 04:35:20;;;;;;;;;;;7.50;84.10;;;6.36;67.40;100778.84;6152142;23;20255;-89
2023/02/01 04:37:47;;;;;;;;;;;7.50;84.30;;;6.40;67.47;100772.22;6151875;23;19920;-89
2023/02/01 04:40:14;;;;;;;;;;;7.60;84.30;;;6.41;66.94;100771.19;6152775;23;19916;-89
2023/02/01 04:42:42;;;;;;;;;;;7.60;84.40;;;6.40;67.29;100766.91;6153871;23;19921;-89
2023/02/01 04:45:11;;;;;;;;;;;7.60;84.50;;;6.44;67.49;100773.47;6177765;23;19953;-90
2023/02/01 04:47:38;;;;;;;;;;;7.60;84.50;;;6.51;67.21;100776.25;6153435;23;19920;-89
2023/02/01 04:50:07;;;;;;;;;;;7.60;84.30;;;6.43;66.94;100777.13;6154124;23;19948;-89
2023/02/01 04:52:35;;;;;;;;;;;7.60;84.10;;;6.45;67.20;100785.75;6152229;23;19916;-89
2023/02/01 04:55:02;;;;;;;;;;;7.60;84.40;;;6.49;67.29;100792.34;6154255;23;20308;-89
2023/02/01 04:57:29;;;;;;;;;;;7.60;84.30;;;6.48;67.14;100790.66;6151408;23;20299;-90
2023/02/01 04:59:56;;;;;;;;;;;7.60;84.30;;;6.43;67.41;100795.69;6154459;23;19931;-89
2023/02/01 05:02:25;;;;;;;;;;;7.60;84.50;;;6.43;67.49;100800.97;6154346;23;19938;-91
2023/02/01 05:04:53;;;;;;;;;;;7.60;84.70;;;6.33;67.41;100789.78;6153051;23;20361;-92
2023/02/01 05:07:21;;;;;;;;;;;7.50;84.50;;;6.34;67.60;100791.44;6152680;23;19920;-86
2023/02/01 05:09:48;;;;;;;;;;;7.50;84.80;;;6.37;67.55;100786.63;6153134;23;19920;-86
2023/02/01 05:15:20;;;;;;;;;;;7.50;84.90;;;6.35;67.58;100785.97;6155730;23;19921;-95
2023/02/01 05:21:52;;;;;;;;;;;7.50;84.70;;;6.25;67.91;100774.78;6156744;23;20354;-93
2023/02/01 05:24:47;;;;;;;;;;;7.40;84.80;;;6.30;67.93;100776.91;6155045;23;19921;-94
2023/02/01 05:27:14;;;;;;;;;;;7.50;84.90;;;6.17;68.03;100785.44;6155467;23;19917;-89
2023/02/01 05:29:41;;;;;;;;;;;7.40;84.90;;;6.25;68.00;100785.38;6154918;23;19916;-92
2023/02/01 05:32:10;;;;;;;;;;;7.40;84.90;;;6.23;67.82;100792.66;6154349;23;19926;-92
2023/02/01 05:34:37;;;;;;;;;;;7.40;84.90;;;6.23;68.08;100805.91;6155061;23;19964;-90
2023/02/01 05:43:28;;;;;;;;;;;7.40;85.10;;;6.30;68.23;100787.50;6092206;23;19927;-86
2023/02/01 05:45:58;;;;;;;;;;;7.40;85.00;;;6.34;67.97;100791.44;6070963;23;19921;-91
2023/02/01 05:48:26;;;;;;;;;;;7.50;85.00;;;6.30;67.42;100788.34;6070210;23;19929;-92
2023/02/01 05:51:05;;;;;;;;;;;7.50;84.50;;;6.31;67.67;100789.16;6070279;23;19977;-93
2023/02/01 05:53:38;;;;;;;;;;;7.50;84.90;;;6.30;67.75;100768.97;6070856;23;20285;-92
2023/02/01 05:56:11;;;;;;;;;;;7.50;84.70;;;6.28;67.45;100765.66;6069510;23;20370;-87
2023/02/01 05:58:51;;;;;;;;;;;7.50;84.60;;;6.29;67.60;100765.47;6071984;23;19944;-94
2023/02/01 06:01:20;;;;;;;;;;;7.40;84.50;;;6.23;67.53;100758.22;6067413;23;19953;-82
2023/02/01 06:03:47;;;;;;;;;;;7.40;84.60;;;6.27;67.29;100753.41;6091565;23;19921;-83
2023/02/01 06:06:14;;;;;;;;;;;7.40;84.60;;;6.29;67.47;100756.69;6089991;23;19917;-84
2023/02/01 06:08:43;;;;;;;;;;;7.40;84.40;;;6.24;67.18;100756.41;6062532;23;20023;-83
2023/02/01 06:11:10;;;;;;;;;;;7.40;84.60;;;6.22;67.90;100769.84;6125563;23;19916;-82
2023/02/01 06:13:38;;;;;;;;;;;7.40;84.70;;;6.24;67.89;100765.16;6153250;23;20403;-82
2023/02/01 06:16:07;;;;;;;;;;;7.40;84.90;;;6.22;68.11;100764.53;6151199;23;19923;-83
2023/02/01 06:18:34;;;;;;;;;;;7.40;85.10;;;6.13;68.10;100766.41;6152226;23;19916;-83
2023/02/01 06:21:01;;;;;;;;;;;7.30;85.10;;;6.15;68.56;100775.00;6150842;23;20154;-83
2023/02/01 06:23:28;;;;;;;;;;;7.30;85.50;;;6.17;68.38;100783.59;6149228;23;20308;-84
2023/02/01 06:26:01;;;;;;;;;;;7.30;85.60;;;6.18;68.45;100779.94;6152169;23;19916;-83
2023/02/01 06:28:29;;;;;;;;;;;7.30;85.70;;;6.25;68.50;100784.56;6151322;23;19931;-82
2023/02/01 06:30:57;;;;;;;;;;;7.40;85.60;;;6.22;68.71;100793.66;6152715;23;19916;-83
2023/02/01 06:33:25;;;;;;;;;;;7.40;85.60;;;6.27;68.68;100783.38;6150518;23;19917;-83
2023/02/01 06:35:58;;;;;;;;;;;7.40;85.60;;;6.27;68.46;100783.38;6151475;23;19924;-83
2023/02/01 06:38:26;;;;;;;;;;;7.40;85.60;;;6.30;68.76;100787.50;6150058;23;20256;-83
2023/02/01 06:40:53;;;;;;;;;;;7.40;85.60;;;6.31;68.21;100791.81;6151410;23;20003;-83
2023/02/01 06:43:22;;;;;;;;;;;7.40;85.40;;;6.21;68.89;100799.97;6151856;23;19920;-82
2023/02/01 06:45:49;;;;;;;;;;;7.40;85.50;;;6.23;68.88;100786.53;6152350;23;19927;-82
2023/02/01 06:48:16;;;;;;;;;;;7.40;85.40;;;6.27;68.51;100779.91;6150444;23;19954;-83
2023/02/01 06:50:42;;;;;;;;;;;7.50;85.50;;;6.27;68.21;100788.66;6152412;23;19923;-83
2023/02/01 06:53:10;;;;;;;;;;;7.50;85.20;;;6.30;68.28;100795.44;6152289;23;19921;-83
2023/02/01 06:55:37;;;;;;;;;;;7.40;85.30;;;6.32;68.37;100793.44;6151656;23;20317;-83
2023/02/01 06:58:04;;;;;;;;;;;7.50;85.30;;;6.31;67.96;100786.50;6151720;23;19920;-83
2023/02/01 07:00:32;;;;;;;;;;;7.50;85.20;;;6.32;68.04;100794.25;6150966;23;19917;-83
2023/02/01 07:02:59;;;;;;;;;;;7.40;85.10;;;6.26;67.86;100796.78;6152697;23;20343;-83
2023/02/01 07:05:26;;;;;;;;;;;7.40;84.80;;;6.28;68.20;100795.59;6150844;23;20658;-83
2023/02/01 07:07:53;;;;;;;;;;;7.40;85.10;;;6.32;68.30;100796.09;6150093;23;20461;-83
2023/02/01 07:10:20;;;;;;;;;;;7.50;85.10;;;6.31;67.67;100792.63;6151269;23;19920;-83
2023/02/01 07:12:47;;;;;;;;;;;7.50;84.80;;;6.34;67.91;100804.69;6150918;23;19926;-83
2023/02/01 07:15:14;;;;;;;;;;;7.50;84.90;;;6.33;67.78;100793.25;6149598;23;19926;-83
2023/02/01 07:17:44;;;;;;;;;;;7.50;85.10;;;6.32;68.03;100802.22;6149545;23;19916;-83
2023/02/01 07:20:11;;;;;;;;;;;7.50;85.10;;;6.35;67.67;100812.47;6151579;23;19916;-83
2023/02/01 07:22:38;;;;;;;;;;;7.50;84.90;;;6.29;68.01;100805.19;6150941;23;19920;-83
2023/02/01 07:25:06;;;;;;;;;;;7.40;84.90;;;6.32;68.27;100802.22;6151095;23;19995;-83
2023/02/01 07:27:35;;;;;;;;;;;7.40;85.10;;;6.37;68.17;100801.69;6149843;23;19944;-84
2023/02/01 07:30:02;;;;;;;;;;;7.50;85.30;;;6.41;67.98;100819.69;6148854;23;20358;-83
2023/02/01 07:32:29;;;;;;;;;;;7.50;85.30;;;6.43;68.22;100811.56;6151182;23;20336;-83
2023/02/01 07:34:57;;;;;;;;;;;7.50;85.20;;;6.44;67.78;100816.72;6150913;23;19916;-83
2023/02/01 07:37:24;;;;;;;;;;;7.60;85.00;;;6.44;67.66;100815.88;6150441;23;19927;-83
2023/02/01 07:39:51;;;;;;;;;;;7.60;84.90;;;6.40;68.15;100804.81;6150756;23;19917;-83
2023/02/01 07:42:18;;;;;;;;;;;7.60;85.10;;;6.39;67.96;100807.63;6149082;23;19921;-83
2023/02/01 07:44:45;;;;;;;;;;;7.60;85.10;;;6.36;68.37;100814.09;6150493;23;19936;-83
2023/02/01 07:47:12;;;;;;;;;;;7.60;85.30;;;6.39;68.46;100816.41;6148518;23;19943;-83
2023/02/01 07:49:39;;;;;;;;;;;7.60;85.30;;;6.39;68.35;100818.22;6148917;23;19962;-83
2023/02/01 07:52:08;;;;;;;;;;;7.60;85.30;;;6.37;68.48;100813.09;6150830;23;20329;-83
2023/02/01 07:54:35;;;;;;;;;;;7.60;85.30;;;6.39;68.76;100804.97;6150639;23;19955;-83
2023/02/01 07:57:01;;;;;;;;;;;7.60;85.50;;;6.39;68.69;100812.91;6150111;23;19924;-83
2023/02/01 07:59:28;;;;;;;;;;;7.60;85.50;;;6.37;68.63;100815.75;6148331;23;19921;-83
2023/02/01 08:01:54;;;;;;;;;;;7.50;85.50;;;6.38;68.59;100816.56;6148459;23;19939;-83
2023/02/01 08:04:21;;;;;;;;;;;7.50;85.70;;;6.37;68.68;100809.63;6151058;23;20403;-83
2023/02/01 08:06:48;;;;;;;;;;;7.50;85.80;;;6.36;69.06;100818.59;6150228;23;19943;-83
2023/02/01 08:09:17;;;;;;;;;;;7.50;85.80;;;6.31;69.11;100823.59;6150302;23;19991;-83
2023/02/01 08:11:44;;;;;;;;;;;7.50;86.10;;;6.33;69.57;100813.63;6148201;23;20342;-83
2023/02/01 08:14:11;;;;;;;;;;;7.50;86.10;;;6.36;69.57;100821.22;6151237;23;19917;-84
2023/02/01 08:16:39;;;;;;;;;;;7.50;86.20;;;6.37;69.59;100831.66;6149834;23;19955;-83
2023/02/01 08:19:06;;;;;;;;;;;7.50;86.10;;;6.42;69.26;100825.81;6149591;23;19963;-83
2023/02/01 08:21:37;;;;;;;;;;;7.50;86.20;;;6.41;69.73;100832.94;6150478;23;19947;-83
2023/02/01 08:24:05;;;;;;;;;;;7.60;86.20;;;6.42;68.86;100836.41;6149935;23;19920;-83
2023/02/01 08:26:34;;;;;;;;;;;7.60;86.00;;;6.45;69.14;100834.25;6149674;23;19971;-83
2023/02/01 08:29:03;;;;;;;;;;;7.60;86.30;;;6.47;69.55;100833.25;6150003;23;19923;-83
2023/02/01 08:31:31;;;;;;;;;;;7.60;86.20;;;6.45;69.42;100839.56;6148862;23;20518;-84
2023/02/01 08:34:00;;;;;;;;;;;7.60;86.10;;;6.48;69.22;100848.97;6148518;23;19920;-84
2023/02/01 08:36:30;;;;;;;;;;;7.60;86.20;;;6.48;69.41;100843.66;6146543;23;20341;-84
2023/02/01 08:38:57;;;;;;;;;;;7.60;86.20;;;6.49;69.31;100855.94;6151065;23;20318;-84
2023/02/01 08:41:26;;;;;;;;;;;7.60;86.20;;;6.46;69.52;100858.91;6149482;23;19920;-84
2023/02/01 08:43:55;;;;;;;;;;;7.60;86.30;;;6.49;69.61;100842.69;6149852;23;20347;-84
2023/02/01 08:46:22;;;;;;;;;;;7.60;86.00;;;6.49;69.31;100861.22;6149962;23;19971;-84
2023/02/01 08:48:50;;;;;;;;;;;7.60;86.10;;;6.50;69.67;100856.75;6150897;23;19923;-82
2023/02/01 08:51:19;;;;;;;;;;;7.60;86.30;;;6.53;69.74;100861.69;6148844;23;20307;-86
2023/02/01 08:53:47;;;;;;;;;;;7.70;86.60;;;6.52;69.63;100873.28;6150804;23;19923;-86
2023/02/01 08:56:16;;;;;;;;;;;7.60;86.10;;;6.51;69.60;100864.53;6150954;23;19920;-85
2023/02/01 08:58:43;;;;;;;;;;;7.70;86.50;;;6.52;69.81;100874.13;6150275;23;19917;-89
2023/02/01 09:01:13;;;;;;;;;;;7.70;86.50;;;6.44;69.61;100860.91;6149222;23;19927;-86
2023/02/01 09:03:40;;;;;;;;;;;7.70;86.30;;;6.47;69.93;100867.69;6151376;23;19999;-86
2023/02/01 09:06:10;;;;;;;;;;;7.70;86.30;;;6.47;69.44;100865.88;6149666;23;19948;-87
2023/02/01 09:08:37;;;;;;;;;;;7.70;86.10;;;6.50;69.39;100857.56;6153268;23;19916;-89
2023/02/01 09:11:06;;;;;;;;;;;7.70;86.30;;;6.52;69.63;100858.22;6150469;23;19942;-88
2023/02/01 09:13:35;;;;;;;;;;;7.70;86.40;;;6.54;69.33;100836.84;6150962;23;19932;-91
2023/02/01 09:16:02;;;;;;;;;;;7.70;86.20;;;6.53;68.95;100845.78;6150490;23;19971;-90
2023/02/01 09:18:30;;;;;;;;;;;7.70;85.90;;;6.51;69.39;100821.31;6152441;23;20233;-89
2023/02/01 09:20:57;;;;;;;;;;;7.70;86.20;;;6.50;69.34;100833.72;6151638;23;19916;-87
2023/02/01 09:23:24;;;;;;;;;;;7.70;86.00;;;6.56;69.51;100829.56;6152573;23;19940;-87
2023/02/01 09:28:24;;;;;;;;;;;7.70;86.30;;;6.51;69.80;100839.84;6123877;23;19944;-77
2023/02/01 09:30:56;;;;;;;;;;;7.70;86.50;;;6.53;69.70;100827.25;6123232;23;19917;-77
2023/02/01 09:33:24;;;;;;;;;;;7.70;86.70;;;6.55;69.43;100828.72;6124214;23;19948;-77
2023/02/01 09:35:57;;;;;;;;;;;7.70;86.30;;;6.53;69.65;100830.72;6123654;23;19944;-76
2023/02/01 09:38:25;;;;;;;;;;;7.70;86.30;;;6.55;69.62;100827.91;6153276;23;20387;-77
2023/02/01 09:40:52;;;;;;;;;;;7.70;86.30;;;6.50;69.69;100824.97;6152007;23;19920;-76
2023/02/01 09:43:28;;;;;;;;;;;7.70;86.30;;;6.51;69.98;100830.06;6153389;23;19951;-77
2023/02/01 09:46:03;;;;;;;;;;;7.70;86.50;;;6.57;69.57;100833.84;6152123;23;19955;-77
2023/02/01 09:48:33;;;;;;;;;;;7.70;86.60;;;6.61;69.79;100827.19;6152308;23;20003;-77
2023/02/01 09:51:05;;;;;;;;;;;7.80;86.30;;;6.63;69.20;100825.19;6153212;23;19921;-77
2023/02/01 09:53:35;;;;;;;;;;;7.80;86.30;;;6.63;69.27;100835.78;6148769;23;19951;-76
2023/02/01 09:56:06;;;;;;;;;;;7.80;86.30;;;6.66;69.38;100830.13;6151036;23;19916;-76
2023/02/01 09:58:36;;;;;;;;;;;7.80;86.20;;;6.54;69.62;100835.03;6153399;23;19920;-77
2023/02/01 10:01:06;;;;;;;;;;;7.80;86.00;;;6.63;69.69;100825.19;6151507;23;19958;-76
2023/02/01 10:03:36;;;;;;;;;;;7.80;86.20;;;6.68;69.84;100822.81;6151901;23;19916;-76
2023/02/01 10:06:26;;;;;;;;;;;7.80;86.50;;;6.70;69.48;100821.66;6151242;23;19916;-76
2023/02/01 10:09:16;;;;;;;;;;;7.90;86.20;;;6.72;69.35;100822.28;6152399;23;19944;-77
2023/02/01 10:11:55;;;;;;;;;;;7.90;86.30;;;6.75;69.10;100817.66;6149255;23;20521;-76
2023/02/01 10:14:39;;;;;;;;;;;7.90;85.90;;;6.70;68.51;100820.84;6152876;23;19939;-76
2023/02/01 10:17:13;;;;;;;;;;;7.80;85.60;;;6.69;68.99;100814.72;6146940;23;19942;-76
2023/02/01 10:19:45;;;;;;;;;;;7.80;85.70;;;6.70;68.66;100813.72;6151504;23;19923;-76
2023/02/01 10:22:19;;;;;;;;;;;7.80;85.60;;;6.70;69.33;100804.94;6146776;23;19916;-78
2023/02/01 10:24:49;;;;;;;;;;;7.80;86.20;;;6.72;69.13;100810.88;6148782;23;19999;-78
2023/02/01 10:27:20;;;;;;;;;;;7.80;85.90;;;6.70;69.10;100805.75;6149929;23;20403;-86
2023/02/01 10:29:52;;;;;;;;;;;7.90;86.10;;;6.75;69.09;100815.81;6150551;23;19972;-78
2023/02/01 10:32:22;;;;;;;;;;;7.90;85.90;;;6.75;68.52;100812.34;6149794;23;19924;-78
2023/02/01 10:34:53;;;;;;;;;;;7.90;85.50;;;6.76;69.19;100824.59;6152457;23;20003;-78
2023/02/01 10:37:27;;;;;;;;;;;7.90;85.90;;;6.79;69.14;100824.25;6145878;23;19971;-77
2023/02/01 10:39:55;;;;;;;;;;;7.90;86.00;;;6.74;69.10;100816.84;6150320;23;20003;-77
2023/02/01 10:42:26;;;;;;;;;;;7.90;85.60;;;6.77;68.37;100813.00;6150456;23;19923;-78
2023/02/01 10:44:53;;;;;;;;;;;7.90;85.30;;;6.74;68.54;100811.53;6152455;23;19964;-77
2023/02/01 10:47:21;;;;;;;;;;;7.90;85.30;;;6.78;68.54;100817.28;6148729;23;19917;-77
2023/02/01 10:49:54;;;;;;;;;;;7.90;85.40;;;6.75;68.59;100817.66;6149101;23;19920;-77
2023/02/01 10:52:30;;;;;;;;;;;7.90;85.50;;;6.77;68.65;100816.47;6149536;23;19923;-77
2023/02/01 10:55:18;;;;;;;;;;;7.90;85.60;;;6.80;68.43;100815.28;6151984;23;19917;-77
2023/02/01 10:57:56;;;;;;;;;;;8.00;85.10;;;6.80;68.27;100804.69;6148003;23;19971;-77
2023/02/01 11:00:23;;;;;;;;;;;7.90;85.60;;;6.82;68.25;100814.09;6151508;23;19923;-77
2023/02/01 11:02:51;;;;;;;;;;;7.90;85.30;;;6.85;68.52;100807.63;6152248;23;19981;-77
2023/02/01 11:05:18;;;;;;;;;;;7.90;85.50;;;6.85;68.32;100811.09;6152314;23;19940;-77
2023/02/01 11:07:50;;;;;;;;;;;8.00;85.50;;;6.85;68.36;100810.28;6149348;23;19936;-77
2023/02/01 11:10:36;;;;;;;;;;;8.00;85.30;;;6.81;67.91;100793.91;6151951;23;20311;-77
2023/02/01 11:13:04;;;;;;;;;;;8.00;84.90;;;6.87;68.30;100795.84;6150697;23;19967;-78
2023/02/01 11:15:31;;;;;;;;;;;8.00;85.40;;;6.90;68.60;100792.00;6151774;23;19920;-78
2023/02/01 11:18:08;;;;;;;;;;;8.00;85.60;;;6.94;68.61;100788.81;6150943;23;20551;-78
2023/02/01 11:20:39;;;;;;;;;;;8.10;85.80;;;6.96;67.81;100784.16;6151624;23;19951;-77
2023/02/01 11:23:15;;;;;;;;;;;8.10;84.90;;;6.96;67.76;100788.63;6151715;23;19940;-77
2023/02/01 11:25:50;;;;;;;;;;;8.10;85.00;;;6.98;67.67;100784.00;6152156;23;19920;-78
2023/02/01 11:28:17;;;;;;;;;;;8.10;85.00;;;6.99;68.06;100787.47;6149831;23;20035;-78
2023/02/01 11:30:47;;;;;;;;;;;8.10;84.90;;;6.99;67.94;100779.50;6150610;23;20246;-77
2023/02/01 11:33:16;;;;;;;;;;;8.10;84.90;;;7.02;67.54;100781.78;6150817;23;19920;-78
2023/02/01 11:35:43;;;;;;;;;;;8.10;84.70;;;6.96;67.68;100765.59;6150377;23;19924;-78
2023/02/01 11:38:21;;;;;;;;;;;8.10;84.50;;;7.00;67.45;100768.72;6148967;23;19951;-78
2023/02/01 11:40:48;;;;;;;;;;;8.10;84.60;;;7.04;67.34;100755.94;6150441;23;19921;-78
2023/02/01 11:43:19;;;;;;;;;;;8.20;84.40;;;7.03;67.70;100749.81;6150494;23;20007;-77
2023/02/01 11:45:55;;;;;;;;;;;8.10;84.70;;;7.03;67.30;100746.31;6150805;23;19952;-77
2023/02/01 11:48:24;;;;;;;;;;;8.20;84.50;;;7.08;67.41;100743.97;6148225;23;19921;-78
2023/02/01 11:50:57;;;;;;;;;;;8.20;84.80;;;7.09;67.42;100741.13;6150374;23;19971;-78
2023/02/01 11:53:39;;;;;;;;;;;8.20;84.50;;;7.06;67.44;100738.00;6151575;23;20340;-78
2023/02/01 11:56:14;;;;;;;;;;;8.20;84.70;;;6.98;67.76;100749.53;6150636;23;19920;-78
2023/02/01 11:58:58;;;;;;;;;;;8.10;85.00;;;7.02;68.63;100753.44;6150828;23;19916;-78
2023/02/01 12:01:40;;;;;;;;;;;8.10;85.80;;;6.96;70.11;100746.22;6147427;23;19921;-77
2023/02/01 12:04:55;;;;;;;;;;;8.10;87.00;;;6.94;70.98;100735.81;6150372;23;20359;-77
2023/02/01 12:07:26;;;;;;;;;;;8.10;87.60;;;6.97;71.58;100740.72;6092616;23;19924;-78
2023/02/01 12:10:03;;;;;;;;;;;8.20;88.10;;;6.94;72.17;100732.31;6093205;23;19972;-78
2023/02/01 12:12:37;;;;;;;;;;;8.10;88.50;;;6.89;72.52;100729.41;6139193;23;20359;-77